Impacts TAF Board
For situational awareness. Not to be used for flight planning purposes.
IDs:

KASE - Aspen/Pitkin Cnty, CO, US

Issued at 1727 UTC 01 Feb 2023
Updated at 2243 UTC 01 Feb 2023
Potential Impact None Slight Moderate High
Time2153Z 01/23Z 02/00Z 02/01Z 02/02Z 02/03Z 02/04Z 02/05Z 02/06Z 02/07Z 02/08Z 02/09Z 02/10Z 02/11Z>>
Type OBS PRVL PRVL PRVL PRVL PRVL PRVL PRVL PRVL PRVL PRVL PRVL PRVL PRVL
VIS 10 >6 >6 >6 >6 >6 >6 >6 >6 >6 >6 >6 >6 >6
CIG -- -- -- -- -- -- -- -- -- -- -- -- -- --
Cover CLR SKC FEW FEW FEW FEW FEW FEW FEW FEW FEW FEW FEW FEW
FltCat VFR VFR VFR VFR VFR VFR VFR VFR VFR VFR VFR VFR VFR VFR
WX -- -- -- -- -- -- -- -- -- -- -- -- -- --
WDir 340 340 200 200 200 200 200 200 200 200 200 200 200 200
WSpd 6 5 5 5 5 5 5 5 5 5 5 5 5 5
WGst -- -- -- -- -- -- -- -- -- -- -- -- -- --
WSHgt -- -- -- -- -- -- -- -- -- -- -- -- -- --
WSDir -- -- -- -- -- -- -- -- -- -- -- -- -- --
WSSpd -- -- -- -- -- -- -- -- -- -- -- -- -- --
R15/33
XWnd -0 -0 -3 -3 -3 -3 -3 -3 -3 -3 -3 -3 -3 -3
HWnd -6 -5 4 4 4 4 4 4 4 4 4 4 4 4

NOTE: LAMP data beyond the time of the TAF data is denoted as LAMP in Type and colored magenta.

Raw TAF
KASE 011727Z 0118/0218 34005KT P6SM SKC
  FM020000 20005KT P6SM FEW080


Raw METAR
KASE 012153Z 34006KT 10SM CLR M03/M12 A3014 RMK AO2 SLP266 T10331117
KASE 012053Z 35007KT 10SM CLR M04/M13 A3013 RMK AO2 SLP259 T10441133 56025
KASE 011953Z 36006KT 10SM CLR M05/M14 A3015 RMK AO2 SLP269 T10501139

METAR Board
Radar Display
Forecast Discussion

For situational awareness. Not to be used for flight planning purposes.